createdAt,value
2018-09-11T00:01:00.887Z,20.69
2018-09-11T00:06:00.288Z,20.72
2018-09-11T00:08:28.625Z,20.50
2018-09-11T00:10:59.877Z,20.44
2018-09-11T00:13:29.684Z,20.38
2018-09-11T00:15:57.525Z,20.51
2018-09-11T00:18:27.981Z,20.48
2018-09-11T00:20:57.935Z,20.61
2018-09-11T00:23:25.405Z,20.74
2018-09-11T00:25:53.845Z,20.55
2018-09-11T00:28:24.315Z,20.64
2018-09-11T00:30:51.912Z,20.72
2018-09-11T00:35:56.114Z,20.49
2018-09-11T00:38:22.909Z,20.47
2018-09-11T00:40:49.642Z,20.55
2018-09-11T00:43:16.471Z,20.68
2018-09-11T00:45:43.037Z,20.79
2018-09-11T00:48:10.569Z,20.88
2018-09-11T00:50:37.347Z,20.90
2018-09-11T00:53:04.151Z,20.91
2018-09-11T00:55:31.834Z,20.94
2018-09-11T00:57:58.581Z,20.80
2018-09-11T01:00:26.640Z,20.68
2018-09-11T01:02:53.352Z,20.71
2018-09-11T01:05:20.170Z,20.86
2018-09-11T01:07:46.760Z,20.89
2018-09-11T01:10:14.656Z,20.92
2018-09-11T01:12:41.638Z,20.87
2018-09-11T01:15:08.397Z,21.13
2018-09-11T01:17:36.371Z,20.84
2018-09-11T01:20:05.025Z,20.56
2018-09-11T01:22:33.070Z,20.51
2018-09-11T01:24:59.874Z,20.29
2018-09-11T01:27:26.614Z,20.51
2018-09-11T01:29:56.311Z,20.41
2018-09-11T01:32:23.113Z,20.33
2018-09-11T01:34:53.093Z,20.38
2018-09-11T01:37:23.759Z,20.26
2018-09-11T01:39:52.859Z,20.25
2018-09-11T01:42:20.287Z,20.63
2018-09-11T01:44:48.030Z,20.40
2018-09-11T01:47:16.457Z,20.57
2018-09-11T01:49:43.252Z,20.61
2018-09-11T01:52:12.589Z,20.45
2018-09-11T01:54:39.478Z,20.30
2018-09-11T01:57:06.086Z,20.41
2018-09-11T01:59:34.224Z,20.54
2018-09-11T02:02:02.092Z,20.63
2018-09-11T02:04:28.904Z,20.73
2018-09-11T02:06:55.572Z,20.77
2018-09-11T02:09:23.411Z,20.67
2018-09-11T02:11:51.174Z,20.71
2018-09-11T02:14:18.106Z,20.93
2018-09-11T02:16:46.663Z,20.84
2018-09-11T02:19:13.367Z,20.79
2018-09-11T02:21:40.324Z,20.77
2018-09-11T02:24:08.033Z,20.81
2018-09-11T02:26:34.768Z,21.03
2018-09-11T02:29:01.465Z,20.93
2018-09-11T02:31:27.947Z,20.85
2018-09-11T02:33:54.457Z,21.09
2018-09-11T02:36:21.207Z,20.86
2018-09-11T02:38:48.206Z,20.85
2018-09-11T02:41:14.820Z,20.79
2018-09-11T02:43:43.251Z,20.84
2018-09-11T02:46:12.757Z,20.86
2018-09-11T02:48:40.345Z,20.94
2018-09-11T02:51:14.497Z,20.79
2018-09-11T02:53:42.899Z,20.84
2018-09-11T02:56:09.616Z,21.14
2018-09-11T02:58:36.130Z,21.09
2018-09-11T03:01:03.062Z,20.96
2018-09-11T03:03:31.979Z,20.96
2018-09-11T03:05:59.438Z,20.88
2018-09-11T03:08:27.318Z,20.85
2018-09-11T03:10:57.085Z,20.98
2018-09-11T03:13:23.756Z,20.84
2018-09-11T03:15:51.554Z,21.01
2018-09-11T03:18:18.243Z,20.94
2018-09-11T03:20:44.818Z,20.92
2018-09-11T03:25:44.176Z,20.81
2018-09-11T03:28:11.553Z,20.83
2018-09-11T03:30:38.892Z,20.82
2018-09-11T03:35:38.160Z,20.76
2018-09-11T03:38:04.786Z,20.76
2018-09-11T03:40:31.444Z,20.44
2018-09-11T03:42:58.168Z,20.68
2018-09-11T03:45:25.653Z,20.55
2018-09-11T03:47:53.856Z,20.43
2018-09-11T03:50:21.871Z,20.45
2018-09-11T03:52:48.534Z,20.60
2018-09-11T03:55:15.744Z,20.43
2018-09-11T03:57:43.511Z,20.56
2018-09-11T04:00:10.541Z,20.68
2018-09-11T04:02:38.212Z,20.46
2018-09-11T04:05:06.747Z,20.64
2018-09-11T04:07:33.547Z,20.52
2018-09-11T04:10:00.856Z,20.51
2018-09-11T04:12:27.532Z,20.45
2018-09-11T04:14:54.610Z,20.57
2018-09-11T04:17:21.327Z,20.45
2018-09-11T04:19:47.997Z,20.37
2018-09-11T04:22:15.948Z,20.42
2018-09-11T04:24:42.424Z,20.64
2018-09-11T04:27:09.032Z,20.68
2018-09-11T04:29:37.282Z,20.68
2018-09-11T04:32:04.075Z,20.76
2018-09-11T04:34:30.950Z,20.82
2018-09-11T04:36:58.193Z,20.98
2018-09-11T04:39:24.961Z,20.85
2018-09-11T04:46:56.033Z,20.27
2018-09-11T04:49:22.947Z,20.39
2018-09-11T04:51:49.705Z,20.42
2018-09-11T04:54:17.262Z,20.52
2018-09-11T04:56:43.792Z,20.78
2018-09-11T04:59:10.529Z,21.18
2018-09-11T05:04:10.564Z,20.92
2018-09-11T05:06:37.972Z,20.90
2018-09-11T05:09:04.556Z,20.96
2018-09-11T05:11:31.107Z,20.83
2018-09-11T05:13:57.790Z,20.89
2018-09-11T05:16:24.483Z,21.01
2018-09-11T05:21:27.603Z,20.93
2018-09-11T05:23:57.255Z,20.82
2018-09-11T05:26:25.591Z,20.79
2018-09-11T05:28:52.255Z,21.02
2018-09-11T05:31:18.823Z,21.05
2018-09-11T05:33:45.565Z,21.05
2018-09-11T05:36:12.333Z,21.17
2018-09-11T05:38:39.092Z,21.17
2018-09-11T05:41:05.937Z,21.14
2018-09-11T05:43:32.493Z,21.18
2018-09-11T05:45:59.046Z,21.34
2018-09-11T05:48:32.836Z,21.27
2018-09-11T05:50:59.508Z,21.29
2018-09-11T05:53:26.240Z,21.30
2018-09-11T05:55:53.320Z,21.46
2018-09-11T05:58:22.471Z,21.73
2018-09-11T06:00:49.186Z,21.51
2018-09-11T06:03:17.812Z,21.61
2018-09-11T06:05:47.044Z,21.77
2018-09-11T06:08:16.036Z,21.87
2018-09-11T06:10:42.709Z,21.93
2018-09-11T06:13:09.361Z,22.07
2018-09-11T06:15:36.834Z,22.51
2018-09-11T06:20:35.349Z,22.66
2018-09-11T06:23:04.735Z,22.78
2018-09-11T06:25:32.977Z,22.99
2018-09-11T06:27:59.884Z,22.95
2018-09-11T06:30:29.771Z,23.18
2018-09-11T06:32:56.801Z,23.08
2018-09-11T06:35:23.800Z,23.13
2018-09-11T06:37:52.619Z,23.36
2018-09-11T06:40:19.289Z,23.24
2018-09-11T06:42:52.630Z,23.28
2018-09-11T06:45:21.445Z,23.31
2018-09-11T06:47:48.703Z,23.25
2018-09-11T06:50:15.303Z,23.38
2018-09-11T06:52:46.443Z,23.76
2018-09-11T06:55:14.170Z,23.96
2018-09-11T06:57:44.234Z,24.08
2018-09-11T07:00:11.190Z,24.14
2018-09-11T07:02:37.892Z,24.27
2018-09-11T07:05:08.253Z,24.72
2018-09-11T07:07:35.099Z,24.54
2018-09-11T07:10:11.345Z,24.43
2018-09-11T07:12:40.760Z,24.65
2018-09-11T07:15:09.485Z,24.60
2018-09-11T07:17:37.173Z,24.58
2018-09-11T07:20:08.822Z,24.67
2018-09-11T07:22:41.583Z,24.83
2018-09-11T07:25:15.262Z,25.04
2018-09-11T07:27:47.894Z,25.10
2018-09-11T07:30:19.999Z,24.96
2018-09-11T07:32:46.598Z,24.80
2018-09-11T07:35:13.308Z,24.96
2018-09-11T07:37:40.001Z,25.03
2018-09-11T07:40:09.170Z,24.99
2018-09-11T07:42:42.696Z,25.37
2018-09-11T07:45:09.236Z,25.21
2018-09-11T07:47:36.586Z,25.37
2018-09-11T07:50:09.663Z,25.25
2018-09-11T07:52:36.431Z,25.08
2018-09-11T07:55:03.304Z,25.16
2018-09-11T07:57:29.912Z,25.28
2018-09-11T07:59:57.876Z,25.37
2018-09-11T08:02:26.541Z,25.45
2018-09-11T08:04:54.746Z,25.54
2018-09-11T08:07:21.278Z,25.91
2018-09-11T08:12:23.171Z,26.03
2018-09-11T08:14:50.815Z,26.05
2018-09-11T08:17:24.825Z,26.59
2018-09-11T08:19:51.563Z,26.28
2018-09-11T08:22:22.357Z,26.32
2018-09-11T08:24:48.866Z,26.48
2018-09-11T08:27:15.489Z,26.75
2018-09-11T08:29:42.436Z,26.98
2018-09-11T08:32:09.257Z,27.26
2018-09-11T08:34:36.095Z,27.18
2018-09-11T08:37:02.957Z,27.30
2018-09-11T08:39:29.502Z,27.42
2018-09-11T08:41:58.033Z,27.44
2018-09-11T08:44:26.643Z,27.29
2018-09-11T08:46:53.363Z,27.22
2018-09-11T08:49:26.081Z,27.45
2018-09-11T08:51:53.565Z,27.84
2018-09-11T08:54:20.072Z,28.04
2018-09-11T08:56:46.627Z,28.18
2018-09-11T08:59:16.925Z,28.34
2018-09-11T09:01:47.701Z,28.09
2018-09-11T09:04:15.537Z,27.90
2018-09-11T09:06:42.025Z,27.90
2018-09-11T09:09:11.269Z,28.20
2018-09-11T09:11:37.878Z,28.41
2018-09-11T09:14:04.427Z,28.88
2018-09-11T09:16:34.478Z,29.31
2018-09-11T09:19:01.035Z,28.99
2018-09-11T09:21:27.642Z,29.33
2018-09-11T09:23:54.231Z,29.81
2018-09-11T09:26:23.789Z,30.05
2018-09-11T09:31:28.333Z,30.25
2018-09-11T09:34:02.492Z,30.40
2018-09-11T09:36:38.583Z,30.56
2018-09-11T09:39:05.389Z,30.56
2018-09-11T09:41:37.173Z,30.43
2018-09-11T09:44:03.766Z,30.54
2018-09-11T09:46:30.667Z,30.72
2018-09-11T09:49:00.353Z,30.47
2018-09-11T09:56:37.719Z,31.24
2018-09-11T09:59:04.421Z,31.38
2018-09-11T10:01:31.398Z,30.99
2018-09-11T10:06:33.261Z,31.37
2018-09-11T10:09:06.052Z,31.58
2018-09-11T10:11:32.599Z,31.71
2018-09-11T10:14:01.092Z,31.84
2018-09-11T10:16:27.646Z,31.60
2018-09-11T10:18:57.669Z,31.34
2018-09-11T10:21:24.316Z,31.34
2018-09-11T10:23:53.391Z,31.55
2018-09-11T10:26:19.876Z,31.97
2018-09-11T10:28:48.750Z,32.38
2018-09-11T10:31:18.225Z,32.83
2018-09-11T10:33:45.747Z,32.62
2018-09-11T10:36:17.504Z,32.78
2018-09-11T10:38:44.060Z,33.00
2018-09-11T10:41:11.643Z,32.84
2018-09-11T10:43:38.581Z,33.40
2018-09-11T10:46:06.484Z,33.58
2018-09-11T10:48:34.294Z,33.41
2018-09-11T10:51:02.870Z,32.93
2018-09-11T10:58:40.425Z,32.72
2018-09-11T11:01:07.458Z,32.64
2018-09-11T11:03:34.059Z,32.81
2018-09-11T11:08:32.954Z,33.51
2018-09-11T11:10:59.541Z,34.24
2018-09-11T11:13:29.511Z,34.60
2018-09-11T11:15:56.243Z,34.76
2018-09-11T11:18:25.502Z,34.80
2018-09-11T11:20:57.545Z,34.86
2018-09-11T11:23:24.088Z,34.82
2018-09-11T11:25:50.682Z,35.08
2018-09-11T11:28:17.257Z,35.05
2018-09-11T11:36:00.793Z,34.46
2018-09-11T11:38:27.568Z,34.42
2018-09-11T11:43:33.276Z,35.15
2018-09-11T11:46:11.927Z,35.12
2018-09-11T11:48:40.529Z,35.24
2018-09-11T11:51:07.366Z,34.98
2018-09-11T11:53:33.854Z,35.50
2018-09-11T11:56:00.317Z,35.68
2018-09-11T12:04:01.051Z,35.60
2018-09-11T12:06:28.525Z,35.62
2018-09-11T12:14:13.842Z,35.78
2018-09-11T12:16:40.281Z,35.64
2018-09-11T12:19:12.287Z,35.50
2018-09-11T12:21:38.925Z,34.78
2018-09-11T12:24:05.821Z,34.87
2018-09-11T12:26:32.885Z,35.03
2018-09-11T12:28:59.526Z,35.43
2018-09-11T12:36:47.397Z,34.84
2018-09-11T12:42:04.641Z,35.77
2018-09-11T12:44:31.339Z,36.18
2018-09-11T12:46:58.105Z,35.95
2018-09-11T12:49:27.851Z,36.21
2018-09-11T12:51:54.453Z,36.38
2018-09-11T12:54:21.268Z,36.35
2018-09-11T12:56:48.388Z,36.38
2018-09-11T12:59:15.055Z,36.34
2018-09-11T13:01:46.722Z,35.67
2018-09-11T13:04:13.183Z,34.88
2018-09-11T13:09:20.904Z,35.77
2018-09-11T13:16:53.821Z,36.24
2018-09-11T13:19:21.027Z,36.14
2018-09-11T13:21:47.785Z,35.67
2018-09-11T13:24:15.191Z,35.52
2018-09-11T13:26:43.290Z,35.12
2018-09-11T13:29:10.191Z,35.13
2018-09-11T13:31:36.772Z,35.14
2018-09-11T13:36:42.643Z,34.81
2018-09-11T13:41:46.311Z,34.96
2018-09-11T13:44:12.974Z,35.09
2018-09-11T13:46:39.870Z,35.15
2018-09-11T13:51:49.236Z,35.11
2018-09-11T13:54:21.474Z,35.09
2018-09-11T13:59:33.049Z,34.78
2018-09-11T14:01:59.619Z,34.78
2018-09-11T14:04:29.544Z,35.34
2018-09-11T14:06:56.160Z,35.05
2018-09-11T14:12:10.451Z,35.11
2018-09-11T14:19:48.729Z,34.36
2018-09-11T14:25:05.468Z,34.81
2018-09-11T14:27:36.862Z,35.05
2018-09-11T14:30:04.018Z,34.95
2018-09-11T14:32:30.623Z,34.64
2018-09-11T14:37:42.622Z,34.66
2018-09-11T14:42:50.702Z,34.65
2018-09-11T14:45:19.047Z,34.41
2018-09-11T14:47:46.465Z,34.46
2018-09-11T14:52:50.110Z,34.61
2018-09-11T14:55:16.594Z,34.47
2018-09-11T15:00:27.348Z,34.35
2018-09-11T15:02:53.863Z,34.30
2018-09-11T15:05:20.724Z,34.41
2018-09-11T15:10:18.901Z,34.53
2018-09-11T15:12:45.502Z,34.52
2018-09-11T15:15:12.113Z,34.33
2018-09-11T15:17:47.424Z,34.63
2018-09-11T15:20:13.962Z,34.28
2018-09-11T15:25:26.762Z,34.37
2018-09-11T15:27:53.292Z,34.35
2018-09-11T15:30:22.759Z,34.38
2018-09-11T15:32:50.732Z,34.29
2018-09-11T15:35:21.640Z,34.65
2018-09-11T15:37:54.407Z,34.69
2018-09-11T15:40:25.757Z,34.91
2018-09-11T15:45:24.700Z,34.74
2018-09-11T15:47:51.391Z,34.47
2018-09-11T15:50:17.974Z,34.44
2018-09-11T15:52:44.728Z,34.51
2018-09-11T15:55:11.400Z,34.48
2018-09-11T16:03:09.644Z,33.94
2018-09-11T16:05:37.267Z,33.59
2018-09-11T16:13:33.646Z,33.12
2018-09-11T16:16:01.947Z,32.90
2018-09-11T16:21:22.353Z,32.24
2018-09-11T16:23:49.045Z,31.92
2018-09-11T16:26:15.592Z,31.75
2018-09-11T16:28:48.366Z,31.34
2018-09-11T16:31:17.695Z,31.32
2018-09-11T16:33:44.244Z,31.26
2018-09-11T16:36:10.789Z,31.50
2018-09-11T16:38:37.440Z,31.43
2018-09-11T16:41:04.324Z,31.38
2018-09-11T16:43:33.109Z,31.13
2018-09-11T16:46:07.260Z,30.78
2018-09-11T16:51:09.390Z,30.11
2018-09-11T16:53:43.404Z,30.09
2018-09-11T16:56:16.194Z,29.95
2018-09-11T16:58:44.588Z,29.83
2018-09-11T17:01:18.742Z,29.77
2018-09-11T17:03:50.546Z,29.67
2018-09-11T17:06:20.675Z,29.56
2018-09-11T17:08:49.642Z,29.45
2018-09-11T17:13:54.694Z,29.25
2018-09-11T17:16:27.418Z,29.06
2018-09-11T17:19:01.705Z,28.89
2018-09-11T17:21:28.738Z,28.68
2018-09-11T17:23:57.256Z,28.48
2018-09-11T17:26:25.677Z,28.54
2018-09-11T17:28:52.382Z,28.35
2018-09-11T17:31:24.801Z,27.90
2018-09-11T17:36:27.350Z,27.98
2018-09-11T17:38:54.014Z,27.62
2018-09-11T17:41:23.011Z,27.33
2018-09-11T17:43:54.025Z,27.21
2018-09-11T17:46:20.612Z,27.14
2018-09-11T17:48:47.391Z,27.05
2018-09-11T17:51:17.382Z,27.00
2018-09-11T17:53:45.980Z,26.96
2018-09-11T17:56:13.652Z,26.97
2018-09-11T17:58:40.307Z,26.97
2018-09-11T18:01:07.503Z,26.94
2018-09-11T18:03:35.702Z,26.79
2018-09-11T18:06:02.232Z,26.80
2018-09-11T18:08:29.606Z,26.91
2018-09-11T18:10:57.974Z,26.64
2018-09-11T18:13:25.933Z,26.45
2018-09-11T18:15:53.697Z,26.36
2018-09-11T18:18:22.130Z,26.27
2018-09-11T18:20:52.440Z,26.21
2018-09-11T18:23:19.286Z,26.14
2018-09-11T18:25:47.718Z,25.95
2018-09-11T18:28:19.661Z,25.59
2018-09-11T18:30:46.802Z,25.57
2018-09-11T18:33:15.050Z,25.57
2018-09-11T18:35:45.351Z,25.48
2018-09-11T18:38:14.730Z,25.31
2018-09-11T18:40:43.709Z,25.37
2018-09-11T18:43:11.437Z,25.34
2018-09-11T18:45:41.363Z,25.37
2018-09-11T18:48:07.996Z,25.33
2018-09-11T18:50:37.387Z,25.40
2018-09-11T18:53:07.061Z,25.48
2018-09-11T18:55:34.839Z,25.69
2018-09-11T18:58:03.860Z,25.36
2018-09-11T19:00:30.778Z,25.26
2018-09-11T19:02:58.297Z,25.19
2018-09-11T19:05:26.916Z,25.13
2018-09-11T19:07:53.596Z,25.00
2018-09-11T19:10:20.567Z,24.86
2018-09-11T19:12:47.516Z,24.70
2018-09-11T19:15:14.176Z,24.49
2018-09-11T19:17:41.688Z,24.51
2018-09-11T19:20:08.982Z,24.52
2018-09-11T19:22:37.101Z,24.41
2018-09-11T19:25:03.771Z,24.53
2018-09-11T19:27:30.795Z,24.43
2018-09-11T19:32:29.233Z,24.27
2018-09-11T19:40:01.868Z,24.16
2018-09-11T19:42:28.524Z,24.17
2018-09-11T19:44:56.345Z,24.07
2018-09-11T19:47:24.426Z,24.01
2018-09-11T19:49:50.988Z,23.88
2018-09-11T19:52:19.391Z,24.04
2018-09-11T19:54:47.086Z,23.81
2018-09-11T19:57:15.602Z,23.68
2018-09-11T19:59:46.251Z,23.76
2018-09-11T20:04:45.588Z,23.80
2018-09-11T20:07:13.404Z,23.73
2018-09-11T20:09:43.022Z,23.82
2018-09-11T20:12:15.569Z,23.62
2018-09-11T20:14:42.202Z,23.69
2018-09-11T20:17:09.627Z,23.70
2018-09-11T20:19:38.359Z,23.76
2018-09-11T20:22:05.176Z,23.69
2018-09-11T20:24:33.493Z,23.59
2018-09-11T20:27:00.540Z,23.60
2018-09-11T20:29:27.221Z,23.63
2018-09-11T20:31:54.346Z,23.64
2018-09-11T20:34:21.526Z,23.53
2018-09-11T20:36:48.612Z,23.52
2018-09-11T20:39:16.233Z,23.52
2018-09-11T20:41:45.155Z,23.38
2018-09-11T20:44:12.076Z,23.31
2018-09-11T20:46:41.821Z,23.30
2018-09-11T20:49:08.945Z,23.19
2018-09-11T20:51:35.585Z,23.25
2018-09-11T20:54:02.285Z,23.26
2018-09-11T20:56:31.903Z,23.10
2018-09-11T20:58:59.881Z,23.10
2018-09-11T21:01:28.192Z,23.07
2018-09-11T21:03:56.048Z,22.94
2018-09-11T21:06:22.951Z,22.85
2018-09-11T21:08:49.662Z,22.90
2018-09-11T21:11:17.925Z,22.87
2018-09-11T21:13:44.616Z,22.76
2018-09-11T21:16:12.222Z,22.90
2018-09-11T21:18:39.054Z,22.93
2018-09-11T21:21:06.508Z,22.86
2018-09-11T21:23:33.618Z,22.82
2018-09-11T21:26:00.401Z,22.87
2018-09-11T21:28:26.940Z,22.65
2018-09-11T21:30:53.448Z,22.59
2018-09-11T21:33:23.337Z,22.18
2018-09-11T21:35:50.583Z,22.51
2018-09-11T21:38:21.559Z,22.60
2018-09-11T21:40:52.889Z,22.44
2018-09-11T21:43:19.735Z,22.42
2018-09-11T21:45:46.372Z,22.15
2018-09-11T21:48:16.780Z,22.34
2018-09-11T21:50:45.045Z,22.39
2018-09-11T21:53:13.202Z,22.40
2018-09-11T21:55:40.380Z,22.38
2018-09-11T21:58:07.238Z,22.16
2018-09-11T22:00:34.464Z,22.23
2018-09-11T22:03:01.748Z,22.33
2018-09-11T22:05:31.736Z,22.37
2018-09-11T22:07:58.423Z,22.43
2018-09-11T22:12:57.688Z,21.93
2018-09-11T22:15:26.452Z,22.07
2018-09-11T22:17:53.048Z,22.12
2018-09-11T22:22:51.676Z,22.25
2018-09-11T22:25:18.306Z,22.30
2018-09-11T22:27:45.152Z,22.34
2018-09-11T22:30:14.180Z,22.23
2018-09-11T22:32:41.015Z,22.02
2018-09-11T22:35:10.719Z,21.91
2018-09-11T22:37:37.746Z,21.84
2018-09-11T22:40:05.203Z,21.94
2018-09-11T22:42:31.779Z,21.90
2018-09-11T22:44:59.555Z,21.82
2018-09-11T22:47:26.055Z,21.80
2018-09-11T22:49:52.722Z,21.77
2018-09-11T22:52:21.149Z,21.68
2018-09-11T22:54:48.128Z,21.29
2018-09-11T22:57:16.058Z,20.99
2018-09-11T22:59:45.391Z,20.86
2018-09-11T23:02:12.575Z,20.85
2018-09-11T23:04:39.341Z,20.81
2018-09-11T23:07:06.085Z,20.97
2018-09-11T23:09:33.459Z,21.08
2018-09-11T23:12:02.741Z,21.10
2018-09-11T23:14:32.645Z,20.94
2018-09-11T23:17:01.796Z,21.00
2018-09-11T23:19:29.934Z,21.28
2018-09-11T23:21:58.844Z,21.27
2018-09-11T23:24:25.500Z,21.19
2018-09-11T23:26:52.090Z,21.23
2018-09-11T23:29:21.157Z,21.21
2018-09-11T23:31:47.818Z,21.16
2018-09-11T23:34:15.988Z,21.13
2018-09-11T23:36:45.011Z,21.25
2018-09-11T23:39:11.908Z,21.07
2018-09-11T23:41:42.346Z,21.02
2018-09-11T23:44:08.970Z,21.12
2018-09-11T23:46:37.294Z,21.12
2018-09-11T23:49:03.993Z,21.09
2018-09-11T23:51:30.697Z,20.78
2018-09-11T23:53:57.332Z,20.69
2018-09-11T23:56:24.797Z,20.41
2018-09-11T23:58:56.700Z,20.40
